sensor_id;sensor_type;location;lat;lon;timestamp;temperature;humidity
16505;HTU21D;8365;51.030;4.696;2023-11-19T00:02:13;13.76;118.99
16505;HTU21D;8365;51.030;4.696;2023-11-19T00:04:44;13.76;118.99
16505;HTU21D;8365;51.030;4.696;2023-11-19T00:07:14;13.75;118.99
16505;HTU21D;8365;51.030;4.696;2023-11-19T00:09:44;13.69;118.99
16505;HTU21D;8365;51.030;4.696;2023-11-19T00:12:17;13.70;118.99
16505;HTU21D;8365;51.030;4.696;2023-11-19T00:14:49;13.74;118.99
16505;HTU21D;8365;51.030;4.696;2023-11-19T00:17:19;13.76;118.99
16505;HTU21D;8365;51.030;4.696;2023-11-19T00:19:49;13.67;118.99
16505;HTU21D;8365;51.030;4.696;2023-11-19T00:22:21;13.69;118.99
16505;HTU21D;8365;51.030;4.696;2023-11-19T00:24:52;13.76;118.99
16505;HTU21D;8365;51.030;4.696;2023-11-19T00:27:23;13.68;118.99
16505;HTU21D;8365;51.030;4.696;2023-11-19T00:29:53;13.71;118.99
16505;HTU21D;8365;51.030;4.696;2023-11-19T00:32:24;13.71;118.99
16505;HTU21D;8365;51.030;4.696;2023-11-19T00:34:54;13.75;118.99
16505;HTU21D;8365;51.030;4.696;2023-11-19T00:37:25;13.76;118.99
16505;HTU21D;8365;51.030;4.696;2023-11-19T00:39:55;13.79;118.99
16505;HTU21D;8365;51.030;4.696;2023-11-19T00:42:26;13.77;118.99
16505;HTU21D;8365;51.030;4.696;2023-11-19T00:44:59;13.79;118.99
16505;HTU21D;8365;51.030;4.696;2023-11-19T00:47:32;13.78;118.99
16505;HTU21D;8365;51.030;4.696;2023-11-19T00:50:03;13.75;118.99
16505;HTU21D;8365;51.030;4.696;2023-11-19T00:52:33;13.78;118.99
16505;HTU21D;8365;51.030;4.696;2023-11-19T00:55:05;13.69;118.99
16505;HTU21D;8365;51.030;4.696;2023-11-19T00:57:35;13.79;118.99
16505;HTU21D;8365;51.030;4.696;2023-11-19T01:00:06;13.81;118.99
16505;HTU21D;8365;51.030;4.696;2023-11-19T01:02:48;13.79;118.99
16505;HTU21D;8365;51.030;4.696;2023-11-19T01:05:20;13.84;118.99
16505;HTU21D;8365;51.030;4.696;2023-11-19T01:07:54;13.85;118.99
16505;HTU21D;8365;51.030;4.696;2023-11-19T01:10:24;13.83;118.99
16505;HTU21D;8365;51.030;4.696;2023-11-19T01:12:56;13.81;118.99
16505;HTU21D;8365;51.030;4.696;2023-11-19T01:15:26;13.82;118.99
16505;HTU21D;8365;51.030;4.696;2023-11-19T01:17:57;13.81;118.99
16505;HTU21D;8365;51.030;4.696;2023-11-19T01:20:27;13.75;118.99
16505;HTU21D;8365;51.030;4.696;2023-11-19T01:22:58;13.77;118.99
16505;HTU21D;8365;51.030;4.696;2023-11-19T01:25:28;13.75;118.99
16505;HTU21D;8365;51.030;4.696;2023-11-19T01:27:59;13.74;118.99
16505;HTU21D;8365;51.030;4.696;2023-11-19T01:30:29;13.76;118.99
16505;HTU21D;8365;51.030;4.696;2023-11-19T01:33:02;13.73;118.99
16505;HTU21D;8365;51.030;4.696;2023-11-19T01:35:32;13.79;118.99
16505;HTU21D;8365;51.030;4.696;2023-11-19T01:38:05;13.80;118.99
16505;HTU21D;8365;51.030;4.696;2023-11-19T01:40:36;13.79;118.99
16505;HTU21D;8365;51.030;4.696;2023-11-19T01:43:07;13.81;118.99
16505;HTU21D;8365;51.030;4.696;2023-11-19T01:45:38;13.81;118.99
16505;HTU21D;8365;51.030;4.696;2023-11-19T01:48:09;13.82;118.99
16505;HTU21D;8365;51.030;4.696;2023-11-19T01:50:41;13.75;118.99
16505;HTU21D;8365;51.030;4.696;2023-11-19T01:53:14;13.69;118.99
16505;HTU21D;8365;51.030;4.696;2023-11-19T01:55:46;13.64;118.99
16505;HTU21D;8365;51.030;4.696;2023-11-19T01:58:18;13.58;118.99
16505;HTU21D;8365;51.030;4.696;2023-11-19T02:00:49;13.58;118.99
16505;HTU21D;8365;51.030;4.696;2023-11-19T02:03:20;13.53;118.99
16505;HTU21D;8365;51.030;4.696;2023-11-19T02:05:54;13.45;118.99
16505;HTU21D;8365;51.030;4.696;2023-11-19T02:08:24;13.41;118.99
16505;HTU21D;8365;51.030;4.696;2023-11-19T02:10:56;13.35;118.99
16505;HTU21D;8365;51.030;4.696;2023-11-19T02:13:28;13.34;118.99
16505;HTU21D;8365;51.030;4.696;2023-11-19T02:16:01;13.27;118.99
16505;HTU21D;8365;51.030;4.696;2023-11-19T02:18:32;13.27;118.99
16505;HTU21D;8365;51.030;4.696;2023-11-19T02:21:03;13.25;118.99
16505;HTU21D;8365;51.030;4.696;2023-11-19T02:23:35;13.24;118.99
16505;HTU21D;8365;51.030;4.696;2023-11-19T02:26:12;13.26;118.99
16505;HTU21D;8365;51.030;4.696;2023-11-19T02:28:44;13.25;118.99
16505;HTU21D;8365;51.030;4.696;2023-11-19T02:31:15;13.30;118.99
16505;HTU21D;8365;51.030;4.696;2023-11-19T02:33:45;13.33;118.99
16505;HTU21D;8365;51.030;4.696;2023-11-19T02:36:16;13.31;118.99
16505;HTU21D;8365;51.030;4.696;2023-11-19T02:38:47;13.29;118.99
16505;HTU21D;8365;51.030;4.696;2023-11-19T02:41:17;13.32;118.99
16505;HTU21D;8365;51.030;4.696;2023-11-19T02:43:48;13.26;118.99
16505;HTU21D;8365;51.030;4.696;2023-11-19T02:46:20;13.21;118.99
16505;HTU21D;8365;51.030;4.696;2023-11-19T02:48:51;13.20;118.99
16505;HTU21D;8365;51.030;4.696;2023-11-19T02:51:22;13.17;118.99
16505;HTU21D;8365;51.030;4.696;2023-11-19T02:53:52;13.15;118.99
16505;HTU21D;8365;51.030;4.696;2023-11-19T02:56:23;13.17;118.99
16505;HTU21D;8365;51.030;4.696;2023-11-19T02:58:56;13.19;118.99
16505;HTU21D;8365;51.030;4.696;2023-11-19T03:01:27;13.22;118.99
16505;HTU21D;8365;51.030;4.696;2023-11-19T03:04:00;13.18;118.99
16505;HTU21D;8365;51.030;4.696;2023-11-19T03:06:32;13.25;118.99
16505;HTU21D;8365;51.030;4.696;2023-11-19T03:09:03;13.27;118.99
16505;HTU21D;8365;51.030;4.696;2023-11-19T03:11:40;13.26;118.99
16505;HTU21D;8365;51.030;4.696;2023-11-19T03:14:11;13.25;118.99
16505;HTU21D;8365;51.030;4.696;2023-11-19T03:16:45;13.16;118.99
16505;HTU21D;8365;51.030;4.696;2023-11-19T03:19:17;13.10;118.99
16505;HTU21D;8365;51.030;4.696;2023-11-19T03:21:48;13.08;118.99
16505;HTU21D;8365;51.030;4.696;2023-11-19T03:24:18;13.20;118.99
16505;HTU21D;8365;51.030;4.696;2023-11-19T03:26:49;13.16;118.99
16505;HTU21D;8365;51.030;4.696;2023-11-19T03:29:22;13.05;118.99
16505;HTU21D;8365;51.030;4.696;2023-11-19T03:31:53;13.07;118.99
16505;HTU21D;8365;51.030;4.696;2023-11-19T03:34:23;13.07;118.99
16505;HTU21D;8365;51.030;4.696;2023-11-19T03:36:54;13.03;118.99
16505;HTU21D;8365;51.030;4.696;2023-11-19T03:39:24;12.95;118.99
16505;HTU21D;8365;51.030;4.696;2023-11-19T03:41:55;12.91;118.99
16505;HTU21D;8365;51.030;4.696;2023-11-19T03:44:27;12.90;118.99
16505;HTU21D;8365;51.030;4.696;2023-11-19T03:46:57;12.93;118.99
16505;HTU21D;8365;51.030;4.696;2023-11-19T03:49:28;12.92;118.99
16505;HTU21D;8365;51.030;4.696;2023-11-19T03:51:58;12.86;118.99
16505;HTU21D;8365;51.030;4.696;2023-11-19T03:54:29;12.89;118.99
16505;HTU21D;8365;51.030;4.696;2023-11-19T03:56:59;12.91;118.99
16505;HTU21D;8365;51.030;4.696;2023-11-19T03:59:30;12.81;118.99
16505;HTU21D;8365;51.030;4.696;2023-11-19T04:02:03;12.78;118.99
16505;HTU21D;8365;51.030;4.696;2023-11-19T04:04:34;12.73;118.99
16505;HTU21D;8365;51.030;4.696;2023-11-19T04:07:05;12.74;118.99
16505;HTU21D;8365;51.030;4.696;2023-11-19T04:09:35;12.66;118.99
16505;HTU21D;8365;51.030;4.696;2023-11-19T04:12:08;12.67;118.99
16505;HTU21D;8365;51.030;4.696;2023-11-19T04:14:38;12.67;118.99
16505;HTU21D;8365;51.030;4.696;2023-11-19T04:17:09;12.66;118.99
16505;HTU21D;8365;51.030;4.696;2023-11-19T04:19:39;12.64;118.99
16505;HTU21D;8365;51.030;4.696;2023-11-19T04:22:11;12.65;118.99
16505;HTU21D;8365;51.030;4.696;2023-11-19T04:24:42;12.61;118.99
16505;HTU21D;8365;51.030;4.696;2023-11-19T04:27:14;12.61;118.99
16505;HTU21D;8365;51.030;4.696;2023-11-19T04:29:44;12.58;118.99
16505;HTU21D;8365;51.030;4.696;2023-11-19T04:32:17;12.55;118.99
16505;HTU21D;8365;51.030;4.696;2023-11-19T04:34:47;12.56;118.99
16505;HTU21D;8365;51.030;4.696;2023-11-19T04:37:18;12.53;118.99
16505;HTU21D;8365;51.030;4.696;2023-11-19T04:39:48;12.57;118.99
16505;HTU21D;8365;51.030;4.696;2023-11-19T04:42:19;12.55;118.99
16505;HTU21D;8365;51.030;4.696;2023-11-19T04:44:50;12.51;118.99
16505;HTU21D;8365;51.030;4.696;2023-11-19T04:47:20;12.49;118.99
16505;HTU21D;8365;51.030;4.696;2023-11-19T04:49:50;12.48;118.99
16505;HTU21D;8365;51.030;4.696;2023-11-19T04:52:21;12.45;118.99
16505;HTU21D;8365;51.030;4.696;2023-11-19T04:54:51;12.40;118.99
16505;HTU21D;8365;51.030;4.696;2023-11-19T04:57:22;12.37;118.99
16505;HTU21D;8365;51.030;4.696;2023-11-19T04:59:53;12.43;118.99
16505;HTU21D;8365;51.030;4.696;2023-11-19T05:02:23;12.37;118.99
16505;HTU21D;8365;51.030;4.696;2023-11-19T05:04:54;12.35;118.99
16505;HTU21D;8365;51.030;4.696;2023-11-19T05:07:25;12.33;118.99
16505;HTU21D;8365;51.030;4.696;2023-11-19T05:09:56;12.31;118.99
16505;HTU21D;8365;51.030;4.696;2023-11-19T05:12:27;12.27;118.99
16505;HTU21D;8365;51.030;4.696;2023-11-19T05:14:58;12.23;118.99
16505;HTU21D;8365;51.030;4.696;2023-11-19T05:17:28;12.17;118.99
16505;HTU21D;8365;51.030;4.696;2023-11-19T05:19:59;12.19;118.99
16505;HTU21D;8365;51.030;4.696;2023-11-19T05:22:29;12.21;118.99
16505;HTU21D;8365;51.030;4.696;2023-11-19T05:24:59;12.15;118.99
16505;HTU21D;8365;51.030;4.696;2023-11-19T05:27:30;12.18;118.99
16505;HTU21D;8365;51.030;4.696;2023-11-19T05:30:01;12.14;118.99
16505;HTU21D;8365;51.030;4.696;2023-11-19T05:32:31;12.07;118.99
16505;HTU21D;8365;51.030;4.696;2023-11-19T05:35:02;12.07;118.99
16505;HTU21D;8365;51.030;4.696;2023-11-19T05:37:33;12.05;118.99
16505;HTU21D;8365;51.030;4.696;2023-11-19T05:40:06;11.99;118.99
16505;HTU21D;8365;51.030;4.696;2023-11-19T05:42:46;11.99;118.99
16505;HTU21D;8365;51.030;4.696;2023-11-19T05:45:17;11.96;118.99
16505;HTU21D;8365;51.030;4.696;2023-11-19T05:47:47;11.91;118.99
16505;HTU21D;8365;51.030;4.696;2023-11-19T05:50:18;11.93;118.99
16505;HTU21D;8365;51.030;4.696;2023-11-19T05:52:48;11.89;118.99
16505;HTU21D;8365;51.030;4.696;2023-11-19T05:55:19;11.89;118.99
16505;HTU21D;8365;51.030;4.696;2023-11-19T05:57:49;11.94;118.99
16505;HTU21D;8365;51.030;4.696;2023-11-19T06:00:22;11.90;118.99
16505;HTU21D;8365;51.030;4.696;2023-11-19T06:02:52;11.88;118.99
16505;HTU21D;8365;51.030;4.696;2023-11-19T06:05:22;11.92;118.99
16505;HTU21D;8365;51.030;4.696;2023-11-19T06:07:53;11.92;118.99
16505;HTU21D;8365;51.030;4.696;2023-11-19T06:10:24;11.87;118.99
16505;HTU21D;8365;51.030;4.696;2023-11-19T06:13:01;11.89;118.99
16505;HTU21D;8365;51.030;4.696;2023-11-19T06:15:35;11.91;118.99
16505;HTU21D;8365;51.030;4.696;2023-11-19T06:18:05;11.82;118.99
16505;HTU21D;8365;51.030;4.696;2023-11-19T06:20:36;11.83;118.99
16505;HTU21D;8365;51.030;4.696;2023-11-19T06:23:06;11.81;118.99
16505;HTU21D;8365;51.030;4.696;2023-11-19T06:25:37;11.83;118.99
16505;HTU21D;8365;51.030;4.696;2023-11-19T06:28:08;11.90;118.99
16505;HTU21D;8365;51.030;4.696;2023-11-19T06:30:41;11.91;118.99
16505;HTU21D;8365;51.030;4.696;2023-11-19T06:33:14;12.06;118.99
16505;HTU21D;8365;51.030;4.696;2023-11-19T06:35:45;12.05;118.99
16505;HTU21D;8365;51.030;4.696;2023-11-19T06:38:15;12.08;118.99
16505;HTU21D;8365;51.030;4.696;2023-11-19T06:40:46;12.05;118.99
16505;HTU21D;8365;51.030;4.696;2023-11-19T06:43:16;12.05;118.99
16505;HTU21D;8365;51.030;4.696;2023-11-19T06:45:47;11.98;118.99
16505;HTU21D;8365;51.030;4.696;2023-11-19T06:48:18;12.00;118.99
16505;HTU21D;8365;51.030;4.696;2023-11-19T06:50:48;12.03;118.99
16505;HTU21D;8365;51.030;4.696;2023-11-19T06:53:22;11.98;118.99
16505;HTU21D;8365;51.030;4.696;2023-11-19T06:55:52;11.91;118.99
16505;HTU21D;8365;51.030;4.696;2023-11-19T06:58:22;11.93;118.99
16505;HTU21D;8365;51.030;4.696;2023-11-19T07:00:53;11.90;118.99
16505;HTU21D;8365;51.030;4.696;2023-11-19T07:03:23;11.86;118.99
16505;HTU21D;8365;51.030;4.696;2023-11-19T07:05:54;11.92;118.99
16505;HTU21D;8365;51.030;4.696;2023-11-19T07:08:26;11.92;118.99
16505;HTU21D;8365;51.030;4.696;2023-11-19T07:10:59;11.87;118.99
16505;HTU21D;8365;51.030;4.696;2023-11-19T07:13:29;11.91;118.99
16505;HTU21D;8365;51.030;4.696;2023-11-19T07:16:00;11.84;118.99
16505;HTU21D;8365;51.030;4.696;2023-11-19T07:18:30;11.86;118.99
16505;HTU21D;8365;51.030;4.696;2023-11-19T07:21:05;11.79;118.99
16505;HTU21D;8365;51.030;4.696;2023-11-19T07:23:39;11.84;118.99
16505;HTU21D;8365;51.030;4.696;2023-11-19T07:26:10;11.88;118.99
16505;HTU21D;8365;51.030;4.696;2023-11-19T07:28:41;11.94;118.99
16505;HTU21D;8365;51.030;4.696;2023-11-19T07:31:12;11.92;118.99
16505;HTU21D;8365;51.030;4.696;2023-11-19T07:33:43;11.98;118.99
16505;HTU21D;8365;51.030;4.696;2023-11-19T07:36:14;11.97;118.99
16505;HTU21D;8365;51.030;4.696;2023-11-19T07:38:45;12.04;118.99
16505;HTU21D;8365;51.030;4.696;2023-11-19T07:41:16;12.04;118.99
16505;HTU21D;8365;51.030;4.696;2023-11-19T07:43:47;12.05;118.99
16505;HTU21D;8365;51.030;4.696;2023-11-19T07:46:17;12.11;118.99
16505;HTU21D;8365;51.030;4.696;2023-11-19T07:48:52;12.12;118.99
16505;HTU21D;8365;51.030;4.696;2023-11-19T07:51:22;12.10;118.99
16505;HTU21D;8365;51.030;4.696;2023-11-19T07:53:53;12.17;118.99
16505;HTU21D;8365;51.030;4.696;2023-11-19T07:56:23;12.16;118.99
16505;HTU21D;8365;51.030;4.696;2023-11-19T07:58:54;12.31;118.99
16505;HTU21D;8365;51.030;4.696;2023-11-19T08:01:24;12.35;118.99
16505;HTU21D;8365;51.030;4.696;2023-11-19T08:03:55;12.33;118.99
16505;HTU21D;8365;51.030;4.696;2023-11-19T08:06:25;12.37;118.99
16505;HTU21D;8365;51.030;4.696;2023-11-19T08:08:56;12.38;118.99
16505;HTU21D;8365;51.030;4.696;2023-11-19T08:11:26;12.50;118.99
16505;HTU21D;8365;51.030;4.696;2023-11-19T08:13:57;12.48;118.99
16505;HTU21D;8365;51.030;4.696;2023-11-19T08:16:27;12.58;118.99
16505;HTU21D;8365;51.030;4.696;2023-11-19T08:19:00;12.65;118.99
16505;HTU21D;8365;51.030;4.696;2023-11-19T08:21:31;12.57;118.99
16505;HTU21D;8365;51.030;4.696;2023-11-19T08:24:01;12.65;118.99
16505;HTU21D;8365;51.030;4.696;2023-11-19T08:26:32;12.79;118.99
16505;HTU21D;8365;51.030;4.696;2023-11-19T08:29:02;12.78;118.99
16505;HTU21D;8365;51.030;4.696;2023-11-19T08:31:33;12.82;118.99
16505;HTU21D;8365;51.030;4.696;2023-11-19T08:34:04;12.75;118.99
16505;HTU21D;8365;51.030;4.696;2023-11-19T08:36:34;12.96;118.99
16505;HTU21D;8365;51.030;4.696;2023-11-19T08:39:05;13.03;118.99
16505;HTU21D;8365;51.030;4.696;2023-11-19T08:41:35;13.06;118.99
16505;HTU21D;8365;51.030;4.696;2023-11-19T08:44:10;13.18;118.99
16505;HTU21D;8365;51.030;4.696;2023-11-19T08:46:51;13.27;118.99
16505;HTU21D;8365;51.030;4.696;2023-11-19T08:49:21;13.23;118.99
16505;HTU21D;8365;51.030;4.696;2023-11-19T08:51:52;13.06;118.99
16505;HTU21D;8365;51.030;4.696;2023-11-19T08:54:22;13.29;118.99
16505;HTU21D;8365;51.030;4.696;2023-11-19T08:56:53;13.30;118.99
16505;HTU21D;8365;51.030;4.696;2023-11-19T08:59:23;13.47;118.99
16505;HTU21D;8365;51.030;4.696;2023-11-19T09:01:54;13.37;118.99
16505;HTU21D;8365;51.030;4.696;2023-11-19T09:04:24;13.20;118.99
16505;HTU21D;8365;51.030;4.696;2023-11-19T09:06:57;13.04;118.99
16505;HTU21D;8365;51.030;4.696;2023-11-19T09:09:28;13.03;118.99
16505;HTU21D;8365;51.030;4.696;2023-11-19T09:12:02;12.95;118.99
16505;HTU21D;8365;51.030;4.696;2023-11-19T09:14:33;12.88;118.99
16505;HTU21D;8365;51.030;4.696;2023-11-19T09:17:04;12.85;118.99
16505;HTU21D;8365;51.030;4.696;2023-11-19T09:19:34;12.84;118.99
16505;HTU21D;8365;51.030;4.696;2023-11-19T09:22:06;13.01;118.99
16505;HTU21D;8365;51.030;4.696;2023-11-19T09:24:36;13.56;118.99
16505;HTU21D;8365;51.030;4.696;2023-11-19T09:27:07;14.00;118.99
16505;HTU21D;8365;51.030;4.696;2023-11-19T09:29:37;14.38;118.99
16505;HTU21D;8365;51.030;4.696;2023-11-19T09:32:08;14.65;118.99
16505;HTU21D;8365;51.030;4.696;2023-11-19T09:34:38;14.78;118.99
16505;HTU21D;8365;51.030;4.696;2023-11-19T09:37:08;14.58;118.99
16505;HTU21D;8365;51.030;4.696;2023-11-19T09:39:39;15.17;118.99
16505;HTU21D;8365;51.030;4.696;2023-11-19T09:42:13;15.32;118.99
16505;HTU21D;8365;51.030;4.696;2023-11-19T09:44:43;15.21;118.99
16505;HTU21D;8365;51.030;4.696;2023-11-19T09:47:16;15.10;118.99
16505;HTU21D;8365;51.030;4.696;2023-11-19T09:49:48;15.21;118.99
16505;HTU21D;8365;51.030;4.696;2023-11-19T09:52:20;15.46;118.99
16505;HTU21D;8365;51.030;4.696;2023-11-19T09:54:50;15.38;118.99
16505;HTU21D;8365;51.030;4.696;2023-11-19T09:57:21;15.70;118.99
16505;HTU21D;8365;51.030;4.696;2023-11-19T09:59:52;15.63;118.99
16505;HTU21D;8365;51.030;4.696;2023-11-19T10:02:23;16.27;118.99
16505;HTU21D;8365;51.030;4.696;2023-11-19T10:04:55;15.70;118.99
16505;HTU21D;8365;51.030;4.696;2023-11-19T10:07:27;14.81;118.99
16505;HTU21D;8365;51.030;4.696;2023-11-19T10:10:02;14.50;118.99
16505;HTU21D;8365;51.030;4.696;2023-11-19T10:12:35;14.30;118.99
16505;HTU21D;8365;51.030;4.696;2023-11-19T10:15:20;14.13;118.99
16505;HTU21D;8365;51.030;4.696;2023-11-19T10:17:51;14.01;118.99
16505;HTU21D;8365;51.030;4.696;2023-11-19T10:20:22;13.80;118.99
16505;HTU21D;8365;51.030;4.696;2023-11-19T10:22:53;13.80;118.99
16505;HTU21D;8365;51.030;4.696;2023-11-19T10:25:26;13.95;118.99
16505;HTU21D;8365;51.030;4.696;2023-11-19T10:27:57;14.20;118.99
16505;HTU21D;8365;51.030;4.696;2023-11-19T10:30:28;14.36;118.99
16505;HTU21D;8365;51.030;4.696;2023-11-19T10:33:06;14.68;118.99
16505;HTU21D;8365;51.030;4.696;2023-11-19T10:35:52;14.51;118.99
16505;HTU21D;8365;51.030;4.696;2023-11-19T10:38:24;14.22;118.99
16505;HTU21D;8365;51.030;4.696;2023-11-19T10:40:57;14.36;118.99
16505;HTU21D;8365;51.030;4.696;2023-11-19T10:43:31;14.29;118.99
16505;HTU21D;8365;51.030;4.696;2023-11-19T10:46:12;14.14;118.99
16505;HTU21D;8365;51.030;4.696;2023-11-19T10:48:43;13.89;118.99
16505;HTU21D;8365;51.030;4.696;2023-11-19T10:51:19;13.77;118.99
16505;HTU21D;8365;51.030;4.696;2023-11-19T10:54:04;13.66;118.99
16505;HTU21D;8365;51.030;4.696;2023-11-19T10:56:36;13.61;118.99
16505;HTU21D;8365;51.030;4.696;2023-11-19T10:59:07;13.56;118.99
16505;HTU21D;8365;51.030;4.696;2023-11-19T11:01:44;13.60;118.99
16505;HTU21D;8365;51.030;4.696;2023-11-19T11:04:22;13.75;118.99
16505;HTU21D;8365;51.030;4.696;2023-11-19T11:06:56;13.78;118.99
16505;HTU21D;8365;51.030;4.696;2023-11-19T11:09:31;13.71;118.99
16505;HTU21D;8365;51.030;4.696;2023-11-19T11:12:03;13.67;118.99
16505;HTU21D;8365;51.030;4.696;2023-11-19T11:14:38;13.86;118.99
16505;HTU21D;8365;51.030;4.696;2023-11-19T11:17:11;14.41;118.99
16505;HTU21D;8365;51.030;4.696;2023-11-19T11:19:43;14.36;118.99
16505;HTU21D;8365;51.030;4.696;2023-11-19T11:22:15;14.08;118.99
16505;HTU21D;8365;51.030;4.696;2023-11-19T11:30:34;13.91;118.99
16505;HTU21D;8365;51.030;4.696;2023-11-19T11:33:35;14.04;118.99
16505;HTU21D;8365;51.030;4.696;2023-11-19T11:36:16;14.36;118.99
16505;HTU21D;8365;51.030;4.696;2023-11-19T11:38:49;14.96;118.99
16505;HTU21D;8365;51.030;4.696;2023-11-19T11:41:24;15.42;118.99
16505;HTU21D;8365;51.030;4.696;2023-11-19T11:43:55;15.86;118.99
16505;HTU21D;8365;51.030;4.696;2023-11-19T11:49:04;16.96;118.99
16505;HTU21D;8365;51.030;4.696;2023-11-19T11:57:14;16.74;118.99
16505;HTU21D;8365;51.030;4.696;2023-11-19T11:59:50;16.62;118.99
16505;HTU21D;8365;51.030;4.696;2023-11-19T12:02:22;16.65;118.99
16505;HTU21D;8365;51.030;4.696;2023-11-19T12:04:57;16.67;118.99
16505;HTU21D;8365;51.030;4.696;2023-11-19T12:07:28;16.41;118.99
16505;HTU21D;8365;51.030;4.696;2023-11-19T12:10:09;16.02;118.99
16505;HTU21D;8365;51.030;4.696;2023-11-19T12:12:42;15.37;118.99
16505;HTU21D;8365;51.030;4.696;2023-11-19T12:15:12;15.09;118.99
16505;HTU21D;8365;51.030;4.696;2023-11-19T12:17:51;14.72;118.99
16505;HTU21D;8365;51.030;4.696;2023-11-19T12:20:23;14.25;118.99
16505;HTU21D;8365;51.030;4.696;2023-11-19T12:22:54;13.88;118.99
16505;HTU21D;8365;51.030;4.696;2023-11-19T12:25:24;13.61;118.99
16505;HTU21D;8365;51.030;4.696;2023-11-19T12:27:55;13.33;118.99
16505;HTU21D;8365;51.030;4.696;2023-11-19T12:30:26;13.21;118.99
16505;HTU21D;8365;51.030;4.696;2023-11-19T12:32:56;13.15;118.99
16505;HTU21D;8365;51.030;4.696;2023-11-19T12:35:27;13.12;118.99
16505;HTU21D;8365;51.030;4.696;2023-11-19T12:37:57;13.16;118.99
16505;HTU21D;8365;51.030;4.696;2023-11-19T12:40:28;13.05;118.99
16505;HTU21D;8365;51.030;4.696;2023-11-19T12:42:59;13.03;118.99
16505;HTU21D;8365;51.030;4.696;2023-11-19T12:45:36;13.15;118.99
16505;HTU21D;8365;51.030;4.696;2023-11-19T12:48:08;13.30;118.99
16505;HTU21D;8365;51.030;4.696;2023-11-19T12:50:55;13.32;118.99
16505;HTU21D;8365;51.030;4.696;2023-11-19T12:53:27;13.66;118.99
16505;HTU21D;8365;51.030;4.696;2023-11-19T12:56:07;13.67;118.99
16505;HTU21D;8365;51.030;4.696;2023-11-19T12:58:38;13.66;118.99
16505;HTU21D;8365;51.030;4.696;2023-11-19T13:01:09;14.28;118.99
16505;HTU21D;8365;51.030;4.696;2023-11-19T13:03:40;14.08;118.99
16505;HTU21D;8365;51.030;4.696;2023-11-19T13:06:12;14.38;118.99
16505;HTU21D;8365;51.030;4.696;2023-11-19T13:08:45;15.02;118.99
16505;HTU21D;8365;51.030;4.696;2023-11-19T13:11:30;14.44;118.99
16505;HTU21D;8365;51.030;4.696;2023-11-19T13:14:03;14.33;118.99
16505;HTU21D;8365;51.030;4.696;2023-11-19T13:16:36;14.11;118.99
16505;HTU21D;8365;51.030;4.696;2023-11-19T13:19:07;13.90;118.99
16505;HTU21D;8365;51.030;4.696;2023-11-19T13:21:39;13.83;118.99
16505;HTU21D;8365;51.030;4.696;2023-11-19T13:24:10;13.84;118.99
16505;HTU21D;8365;51.030;4.696;2023-11-19T13:26:40;13.60;118.99
16505;HTU21D;8365;51.030;4.696;2023-11-19T13:29:10;13.34;118.99
16505;HTU21D;8365;51.030;4.696;2023-11-19T13:31:41;13.32;118.99
16505;HTU21D;8365;51.030;4.696;2023-11-19T13:34:11;13.10;118.99
16505;HTU21D;8365;51.030;4.696;2023-11-19T13:36:42;13.04;118.99
16505;HTU21D;8365;51.030;4.696;2023-11-19T13:39:12;12.89;118.99
16505;HTU21D;8365;51.030;4.696;2023-11-19T13:41:43;12.95;118.99
16505;HTU21D;8365;51.030;4.696;2023-11-19T13:44:13;13.02;118.99
16505;HTU21D;8365;51.030;4.696;2023-11-19T13:46:45;13.03;118.99
16505;HTU21D;8365;51.030;4.696;2023-11-19T13:49:16;13.15;118.99
16505;HTU21D;8365;51.030;4.696;2023-11-19T13:51:46;13.79;118.99
16505;HTU21D;8365;51.030;4.696;2023-11-19T13:54:19;13.90;118.99
16505;HTU21D;8365;51.030;4.696;2023-11-19T13:56:55;14.33;118.99
16505;HTU21D;8365;51.030;4.696;2023-11-19T13:59:26;14.78;118.99
16505;HTU21D;8365;51.030;4.696;2023-11-19T14:01:57;14.72;118.99
16505;HTU21D;8365;51.030;4.696;2023-11-19T14:04:27;14.82;118.99
16505;HTU21D;8365;51.030;4.696;2023-11-19T14:06:58;14.78;118.99
16505;HTU21D;8365;51.030;4.696;2023-11-19T14:09:28;14.39;118.99
16505;HTU21D;8365;51.030;4.696;2023-11-19T14:11:59;14.01;118.99
16505;HTU21D;8365;51.030;4.696;2023-11-19T14:14:29;13.89;118.99
16505;HTU21D;8365;51.030;4.696;2023-11-19T14:17:01;13.82;118.99
16505;HTU21D;8365;51.030;4.696;2023-11-19T14:19:33;13.67;118.99
16505;HTU21D;8365;51.030;4.696;2023-11-19T14:22:04;13.58;118.99
16505;HTU21D;8365;51.030;4.696;2023-11-19T14:24:37;13.48;118.99
16505;HTU21D;8365;51.030;4.696;2023-11-19T14:27:07;13.39;118.99
16505;HTU21D;8365;51.030;4.696;2023-11-19T14:29:38;13.35;118.99
16505;HTU21D;8365;51.030;4.696;2023-11-19T14:32:12;13.39;118.99
16505;HTU21D;8365;51.030;4.696;2023-11-19T14:34:43;13.30;118.99
16505;HTU21D;8365;51.030;4.696;2023-11-19T14:37:14;13.16;118.99
16505;HTU21D;8365;51.030;4.696;2023-11-19T14:39:46;13.14;118.99
16505;HTU21D;8365;51.030;4.696;2023-11-19T14:42:17;13.03;118.99
16505;HTU21D;8365;51.030;4.696;2023-11-19T14:44:48;12.92;118.99
16505;HTU21D;8365;51.030;4.696;2023-11-19T14:47:19;12.85;118.99
16505;HTU21D;8365;51.030;4.696;2023-11-19T14:49:50;12.76;118.99
16505;HTU21D;8365;51.030;4.696;2023-11-19T14:52:20;12.61;118.99
16505;HTU21D;8365;51.030;4.696;2023-11-19T14:54:51;12.63;118.99
16505;HTU21D;8365;51.030;4.696;2023-11-19T14:57:24;12.49;118.99
16505;HTU21D;8365;51.030;4.696;2023-11-19T14:59:54;12.40;118.99
16505;HTU21D;8365;51.030;4.696;2023-11-19T15:02:25;12.38;118.99
16505;HTU21D;8365;51.030;4.696;2023-11-19T15:04:55;12.32;118.99
16505;HTU21D;8365;51.030;4.696;2023-11-19T15:07:26;12.21;118.99
16505;HTU21D;8365;51.030;4.696;2023-11-19T15:09:56;12.18;118.99
16505;HTU21D;8365;51.030;4.696;2023-11-19T15:12:28;12.05;118.99
16505;HTU21D;8365;51.030;4.696;2023-11-19T15:15:00;12.03;118.99
16505;HTU21D;8365;51.030;4.696;2023-11-19T15:17:31;12.08;118.99
16505;HTU21D;8365;51.030;4.696;2023-11-19T15:20:03;12.25;118.99
16505;HTU21D;8365;51.030;4.696;2023-11-19T15:22:33;12.36;118.99
16505;HTU21D;8365;51.030;4.696;2023-11-19T15:25:07;12.42;118.99
16505;HTU21D;8365;51.030;4.696;2023-11-19T15:27:40;12.49;118.99
16505;HTU21D;8365;51.030;4.696;2023-11-19T15:30:11;12.52;118.99
16505;HTU21D;8365;51.030;4.696;2023-11-19T15:32:42;12.55;118.99
16505;HTU21D;8365;51.030;4.696;2023-11-19T15:35:13;12.61;118.99
16505;HTU21D;8365;51.030;4.696;2023-11-19T15:37:43;12.61;118.99
16505;HTU21D;8365;51.030;4.696;2023-11-19T15:40:15;12.65;118.99
16505;HTU21D;8365;51.030;4.696;2023-11-19T15:42:46;12.67;118.99
16505;HTU21D;8365;51.030;4.696;2023-11-19T15:45:17;12.67;118.99
16505;HTU21D;8365;51.030;4.696;2023-11-19T15:47:49;12.61;118.99
16505;HTU21D;8365;51.030;4.696;2023-11-19T15:50:19;12.70;118.99
16505;HTU21D;8365;51.030;4.696;2023-11-19T15:52:50;12.76;118.99
16505;HTU21D;8365;51.030;4.696;2023-11-19T15:55:20;12.78;118.99
16505;HTU21D;8365;51.030;4.696;2023-11-19T15:57:51;12.87;118.99